createdAt,value
2018-05-24T00:00:01.067Z,1069.1
2018-05-24T00:04:32.596Z,1068.96
2018-05-24T00:05:32.622Z,1069.24
2018-05-24T00:06:32.603Z,1069.29
2018-05-24T00:07:32.581Z,1069.24
2018-05-24T00:08:32.572Z,1069.29
2018-05-24T00:09:32.648Z,1069.3
2018-05-24T00:10:32.630Z,1069.34
2018-05-24T00:11:32.582Z,1069.15
2018-05-24T00:12:32.566Z,1069.11
2018-05-24T00:13:32.591Z,1069.18
2018-05-24T00:14:32.587Z,1069.32
2018-05-24T00:15:32.584Z,1069.06
2018-05-24T00:16:32.614Z,1069.04
2018-05-24T00:17:32.596Z,1069.05
2018-05-24T00:18:32.606Z,1069.17
2018-05-24T00:19:32.615Z,1069.39
2018-05-24T00:20:32.594Z,1069.23
2018-05-24T00:21:32.605Z,1069.17
2018-05-24T00:22:32.615Z,1069.22
2018-05-24T00:23:32.635Z,1069.13
2018-05-24T00:24:32.620Z,1069.15
2018-05-24T00:25:32.648Z,1069.04
2018-05-24T00:26:32.655Z,1069.02
2018-05-24T00:27:32.639Z,1069.15
2018-05-24T00:28:32.646Z,1069.19
2018-05-24T00:29:32.651Z,1069.24
2018-05-24T00:30:32.665Z,1069.24
2018-05-24T00:31:32.652Z,1069.15
2018-05-24T00:32:32.680Z,1069.27
2018-05-24T00:33:32.620Z,1069.19
2018-05-24T00:34:32.658Z,1069.18
2018-05-24T00:35:32.659Z,1069.27
2018-05-24T00:36:32.663Z,1069.21
2018-05-24T00:37:32.651Z,1069.23
2018-05-24T00:38:32.655Z,1069.14
2018-05-24T00:39:32.634Z,1069.21
2018-05-24T00:40:32.629Z,1069.35
2018-05-24T00:41:32.676Z,1069.24
2018-05-24T00:42:32.682Z,1069.36
2018-05-24T00:43:32.687Z,1069.29
2018-05-24T00:44:32.666Z,1069.35
2018-05-24T00:45:32.700Z,1069.28
2018-05-24T00:46:32.692Z,1069.34
2018-05-24T00:47:32.700Z,1069.17
2018-05-24T00:48:32.656Z,1069.34
2018-05-24T00:49:32.953Z,1069.18
2018-05-24T00:50:32.706Z,1069.32
2018-05-24T00:51:32.699Z,1069.27
2018-05-24T00:52:32.662Z,1069.16
2018-05-24T00:53:32.672Z,1069.22
2018-05-24T00:54:32.715Z,1069.14
2018-05-24T00:55:32.667Z,1069.12
2018-05-24T00:56:32.656Z,1069.2
2018-05-24T00:57:32.672Z,1069.02
2018-05-24T00:58:32.692Z,1069.16
2018-05-24T00:59:32.662Z,1069.08
2018-05-24T01:00:32.672Z,1068.98
2018-05-24T01:01:32.660Z,1069.11
2018-05-24T01:02:32.671Z,1069.06
2018-05-24T01:03:32.689Z,1069.1
2018-05-24T01:04:32.675Z,1069.1
2018-05-24T01:05:32.681Z,1069.04
2018-05-24T01:06:32.687Z,1068.89
2018-05-24T01:07:32.668Z,1069.13
2018-05-24T01:08:32.685Z,1069.15
2018-05-24T01:09:32.693Z,1069.01
2018-05-24T01:10:32.782Z,1069.2
2018-05-24T01:11:32.720Z,1069.11
2018-05-24T01:12:32.703Z,1069.26
2018-05-24T01:13:32.694Z,1069.12
2018-05-24T01:14:32.703Z,1069
2018-05-24T01:15:32.773Z,1069.06
2018-05-24T01:16:32.752Z,1069.07
2018-05-24T01:17:32.759Z,1069.08
2018-05-24T01:18:32.709Z,1069.14
2018-05-24T01:19:32.699Z,1069.26
2018-05-24T01:20:32.753Z,1069.14
2018-05-24T01:21:32.714Z,1069.23
2018-05-24T01:22:32.713Z,1069.27
2018-05-24T01:23:32.751Z,1069.16
2018-05-24T01:24:32.727Z,1069.36
2018-05-24T01:25:32.755Z,1069.35
2018-05-24T01:26:32.727Z,1069.5
2018-05-24T01:27:32.721Z,1069.34
2018-05-24T01:28:32.727Z,1069.32
2018-05-24T01:29:32.763Z,1069.37
2018-05-24T01:30:32.748Z,1069.56
2018-05-24T01:31:32.734Z,1069.38
2018-05-24T01:32:32.729Z,1069.73
2018-05-24T01:33:32.762Z,1069.43
2018-05-24T01:34:32.732Z,1069.75
2018-05-24T01:35:32.803Z,1069.67
2018-05-24T01:36:32.761Z,1069.4
2018-05-24T01:37:32.763Z,1069.69
2018-05-24T01:38:32.757Z,1069.69
2018-05-24T01:39:32.745Z,1069.91
2018-05-24T01:40:33.376Z,1069.76
2018-05-24T01:41:32.740Z,1069.9
2018-05-24T01:42:32.761Z,1069.8
2018-05-24T01:43:32.755Z,1069.92
2018-05-24T01:44:32.753Z,1069.9
2018-05-24T01:45:32.783Z,1069.87
2018-05-24T01:46:32.753Z,1069.89
2018-05-24T01:47:32.753Z,1069.86
2018-05-24T01:48:32.814Z,1069.99
2018-05-24T01:49:32.809Z,1069.85
2018-05-24T01:50:32.792Z,1070.15
2018-05-24T01:51:32.798Z,1070.04
2018-05-24T01:52:32.807Z,1069.94
2018-05-24T01:53:32.810Z,1070.08
2018-05-24T01:54:32.771Z,1070
2018-05-24T01:55:32.773Z,1069.98
2018-05-24T01:56:32.813Z,1070.06
2018-05-24T01:57:32.817Z,1070.17
2018-05-24T01:58:32.801Z,1070
2018-05-24T01:59:32.828Z,1069.89
2018-05-24T02:00:32.805Z,1070.07
2018-05-24T02:01:32.812Z,1070.21
2018-05-24T02:02:32.794Z,1070.29
2018-05-24T02:03:32.779Z,1070.29
2018-05-24T02:04:32.813Z,1070.21
2018-05-24T02:05:32.795Z,1070.28
2018-05-24T02:06:32.811Z,1070.33
2018-05-24T02:07:32.780Z,1070.22
2018-05-24T02:08:32.794Z,1070.34
2018-05-24T02:09:32.792Z,1070.35
2018-05-24T02:10:32.805Z,1070.36
2018-05-24T02:11:32.829Z,1070.47
2018-05-24T02:12:32.784Z,1070.31
2018-05-24T02:13:32.817Z,1070.54
2018-05-24T02:14:32.811Z,1070.44
2018-05-24T02:15:32.794Z,1070.35
2018-05-24T02:16:32.812Z,1070.4
2018-05-24T02:17:32.794Z,1070.45
2018-05-24T02:18:32.812Z,1070.42
2018-05-24T02:19:32.846Z,1070.49
2018-05-24T02:20:32.807Z,1070.27
2018-05-24T02:21:32.837Z,1070.59
2018-05-24T02:22:32.828Z,1070.73
2018-05-24T02:23:32.836Z,1070.58
2018-05-24T02:24:32.850Z,1070.62
2018-05-24T02:25:32.842Z,1070.62
2018-05-24T02:26:32.830Z,1070.63
2018-05-24T02:27:32.832Z,1070.74
2018-05-24T02:28:32.859Z,1070.53
2018-05-24T02:29:32.844Z,1070.65
2018-05-24T02:30:32.856Z,1070.61
2018-05-24T02:31:32.835Z,1070.62
2018-05-24T02:32:32.903Z,1070.47
2018-05-24T02:33:32.851Z,1070.52
2018-05-24T02:34:32.948Z,1070.59
2018-05-24T02:35:32.865Z,1070.61
2018-05-24T02:36:32.875Z,1070.6
2018-05-24T02:37:32.859Z,1070.74
2018-05-24T02:38:32.864Z,1070.73
2018-05-24T02:39:32.849Z,1070.78
2018-05-24T02:40:32.843Z,1070.78
2018-05-24T02:41:32.863Z,1070.67
2018-05-24T02:42:32.855Z,1070.75
2018-05-24T02:43:32.877Z,1070.84
2018-05-24T02:44:32.871Z,1070.59
2018-05-24T02:45:32.889Z,1070.65
2018-05-24T02:46:32.865Z,1070.88
2018-05-24T02:47:32.860Z,1070.79
2018-05-24T02:48:32.864Z,1070.8
2018-05-24T02:49:32.892Z,1070.76
2018-05-24T02:50:32.886Z,1070.88
2018-05-24T02:51:32.887Z,1070.89
2018-05-24T02:52:32.891Z,1070.81
2018-05-24T02:53:32.907Z,1070.7
2018-05-24T02:54:32.886Z,1070.82
2018-05-24T02:55:32.912Z,1070.69
2018-05-24T02:56:32.893Z,1070.8
2018-05-24T02:57:32.882Z,1070.95
2018-05-24T02:58:32.937Z,1070.85
2018-05-24T02:59:32.879Z,1071.06
2018-05-24T03:00:33.155Z,1070.88
2018-05-24T03:01:32.902Z,1070.93
2018-05-24T03:02:32.884Z,1070.88
2018-05-24T03:03:32.905Z,1070.84
2018-05-24T03:04:32.896Z,1070.92
2018-05-24T03:05:32.920Z,1070.98
2018-05-24T03:06:32.905Z,1070.94
2018-05-24T03:07:32.940Z,1070.99
2018-05-24T03:08:32.892Z,1071.05
2018-05-24T03:09:32.919Z,1070.96
2018-05-24T03:10:32.937Z,1070.78
2018-05-24T03:11:32.933Z,1071
2018-05-24T03:12:32.946Z,1071.05
2018-05-24T03:13:32.909Z,1070.95
2018-05-24T03:14:32.931Z,1070.89
2018-05-24T03:15:32.950Z,1070.94
2018-05-24T03:16:32.946Z,1070.92
2018-05-24T03:17:32.951Z,1071.02
2018-05-24T03:18:32.963Z,1071.1
2018-05-24T03:19:32.941Z,1070.95
2018-05-24T03:20:32.911Z,1071.08
2018-05-24T03:21:32.956Z,1070.99
2018-05-24T03:22:32.961Z,1070.94
2018-05-24T03:23:32.968Z,1070.88
2018-05-24T03:24:32.921Z,1071.03
2018-05-24T03:25:32.951Z,1071.02
2018-05-24T03:26:32.913Z,1070.77
2018-05-24T03:27:32.964Z,1070.74
2018-05-24T03:28:32.944Z,1070.88
2018-05-24T03:29:32.954Z,1070.81
2018-05-24T03:30:32.986Z,1070.86
2018-05-24T03:31:32.962Z,1070.96
2018-05-24T03:32:32.972Z,1071.05
2018-05-24T03:33:32.953Z,1070.96
2018-05-24T03:34:32.959Z,1071.13
2018-05-24T03:35:32.948Z,1070.9
2018-05-24T03:36:32.957Z,1071.07
2018-05-24T03:37:32.966Z,1071.32
2018-05-24T03:38:32.967Z,1071.11
2018-05-24T03:39:32.996Z,1071.31
2018-05-24T03:40:33.002Z,1071.22
2018-05-24T03:41:32.982Z,1071.04
2018-05-24T03:42:32.956Z,1071.18
2018-05-24T03:43:32.984Z,1071.06
2018-05-24T03:44:32.984Z,1071
2018-05-24T03:45:32.981Z,1070.99
2018-05-24T03:46:32.993Z,1071.11
2018-05-24T03:47:32.974Z,1071.04
2018-05-24T03:48:33.005Z,1071.17
2018-05-24T03:49:32.973Z,1071.04
2018-05-24T03:50:32.974Z,1070.98
2018-05-24T03:51:32.988Z,1071.26
2018-05-24T03:52:33.000Z,1071.2
2018-05-24T03:53:33.008Z,1071.08
2018-05-24T03:54:32.965Z,1071.07
2018-05-24T03:55:32.997Z,1071.14
2018-05-24T03:56:33.000Z,1071.41
2018-05-24T03:57:32.971Z,1071.17
2018-05-24T03:58:33.013Z,1071.1
2018-05-24T03:59:33.005Z,1071.13
2018-05-24T04:00:33.027Z,1070.95
2018-05-24T04:01:33.040Z,1071.26
2018-05-24T04:04:40.424Z,1071.19
2018-05-24T04:04:51.636Z,1071.16
2018-05-24T04:05:51.649Z,1071.09
2018-05-24T04:06:51.620Z,1071.02
2018-05-24T04:07:51.641Z,1071.29
2018-05-24T04:08:51.648Z,1071.35
2018-05-24T04:09:51.627Z,1071.22
2018-05-24T04:10:51.961Z,1071.29
2018-05-24T04:11:51.612Z,1071.33
2018-05-24T04:12:51.638Z,1071.27
2018-05-24T04:13:51.649Z,1071.16
2018-05-24T04:14:51.630Z,1071.37
2018-05-24T04:15:51.636Z,1071.27
2018-05-24T04:16:51.658Z,1071.36
2018-05-24T04:17:51.659Z,1071.26
2018-05-24T04:18:51.657Z,1071.28
2018-05-24T04:19:51.660Z,1071.32
2018-05-24T04:20:51.669Z,1071.34
2018-05-24T04:21:51.698Z,1071.39
2018-05-24T04:22:51.649Z,1071.45
2018-05-24T04:23:51.632Z,1071.38
2018-05-24T04:24:51.648Z,1071.48
2018-05-24T04:25:51.667Z,1071.45
2018-05-24T04:26:51.671Z,1071.58
2018-05-24T04:27:51.642Z,1071.44
2018-05-24T04:28:51.686Z,1071.35
2018-05-24T04:29:51.699Z,1071.42
2018-05-24T04:30:51.651Z,1071.34
2018-05-24T04:31:51.662Z,1071.58
2018-05-24T04:32:51.691Z,1071.52
2018-05-24T04:33:51.672Z,1071.41
2018-05-24T04:34:51.726Z,1071.39
2018-05-24T04:35:51.688Z,1071.3
2018-05-24T04:36:51.703Z,1071.5
2018-05-24T04:37:51.648Z,1071.35
2018-05-24T04:38:51.667Z,1071.38
2018-05-24T04:39:51.700Z,1071.12
2018-05-24T04:40:51.696Z,1071.27
2018-05-24T04:41:51.666Z,1071.32
2018-05-24T04:42:51.708Z,1071.22
2018-05-24T04:43:51.740Z,1071.1
2018-05-24T04:44:51.677Z,1071.48
2018-05-24T04:45:51.694Z,1071.25
2018-05-24T04:46:51.700Z,1071.38
2018-05-24T04:47:51.728Z,1071.4
2018-05-24T04:48:51.699Z,1071.22
2018-05-24T04:49:51.731Z,1071.46
2018-05-24T04:50:51.720Z,1071.33
2018-05-24T04:51:51.712Z,1071.51
2018-05-24T04:52:51.696Z,1071.52
2018-05-24T04:53:51.702Z,1071.52
2018-05-24T04:54:51.708Z,1071.44
2018-05-24T04:55:51.714Z,1071.57
2018-05-24T04:56:51.719Z,1071.51
2018-05-24T04:57:51.727Z,1071.49
2018-05-24T04:58:51.713Z,1071.65
2018-05-24T04:59:51.693Z,1071.39
2018-05-24T05:00:51.728Z,1071.45
2018-05-24T05:01:51.731Z,1071.6
2018-05-24T05:02:51.707Z,1071.74
2018-05-24T05:03:51.718Z,1071.5
2018-05-24T05:04:51.702Z,1071.58
2018-05-24T05:05:51.709Z,1071.68
2018-05-24T05:06:51.708Z,1071.6
2018-05-24T05:07:51.738Z,1071.48
2018-05-24T05:08:51.776Z,1071.85
2018-05-24T05:09:51.727Z,1071.62
2018-05-24T05:10:51.758Z,1071.67
2018-05-24T05:11:51.743Z,1071.53
2018-05-24T05:12:51.743Z,1071.54
2018-05-24T05:13:51.753Z,1071.46
2018-05-24T05:14:51.735Z,1071.42
2018-05-24T05:15:51.753Z,1071.23
2018-05-24T05:16:51.734Z,1071.14
2018-05-24T05:17:51.794Z,1071.16
2018-05-24T05:18:51.790Z,1071.36
2018-05-24T05:19:51.760Z,1071.31
2018-05-24T05:20:51.764Z,1071.4
2018-05-24T05:21:51.764Z,1071.35
2018-05-24T05:22:51.738Z,1071.56
2018-05-24T05:23:51.792Z,1071.52
2018-05-24T05:24:51.758Z,1071.54
2018-05-24T05:25:51.821Z,1071.63
2018-05-24T05:26:51.779Z,1071.83
2018-05-24T05:27:51.769Z,1071.59
2018-05-24T05:28:51.832Z,1071.55
2018-05-24T05:29:51.811Z,1071.56
2018-05-24T05:30:51.789Z,1071.55
2018-05-24T05:31:51.765Z,1071.54
2018-05-24T05:32:51.795Z,1071.42
2018-05-24T05:33:51.793Z,1071.7
2018-05-24T05:34:51.807Z,1071.47
2018-05-24T05:35:51.849Z,1071.58
2018-05-24T05:36:51.821Z,1071.57
2018-05-24T05:37:51.863Z,1071.7
2018-05-24T05:38:51.800Z,1071.82
2018-05-24T05:39:51.828Z,1071.73
2018-05-24T05:40:51.808Z,1071.59
2018-05-24T05:41:51.834Z,1071.75
2018-05-24T05:42:51.843Z,1071.6
2018-05-24T05:43:51.823Z,1071.59
2018-05-24T05:44:51.864Z,1071.68
2018-05-24T05:45:51.813Z,1071.74
2018-05-24T05:46:51.845Z,1071.72
2018-05-24T05:47:51.830Z,1071.69
2018-05-24T05:48:51.797Z,1071.59
2018-05-24T05:49:51.823Z,1071.71
2018-05-24T05:50:51.810Z,1071.62
2018-05-24T05:51:51.821Z,1071.59
2018-05-24T05:52:51.828Z,1071.65
2018-05-24T05:53:51.866Z,1071.99
2018-05-24T05:54:51.818Z,1072
2018-05-24T05:55:51.830Z,1071.82
2018-05-24T05:56:52.112Z,1071.75
2018-05-24T05:57:51.837Z,1071.87
2018-05-24T05:58:52.849Z,1071.85
2018-05-24T05:59:51.829Z,1071.8
2018-05-24T06:00:51.813Z,1072.02
2018-05-24T06:01:51.929Z,1071.82
2018-05-24T06:02:51.871Z,1072.01
2018-05-24T06:03:51.850Z,1071.97
2018-05-24T06:04:51.840Z,1072.12
2018-05-24T06:05:51.866Z,1071.84
2018-05-24T06:06:51.861Z,1071.66
2018-05-24T06:07:51.859Z,1071.66
2018-05-24T06:08:51.834Z,1071.9
2018-05-24T06:09:51.868Z,1071.66
2018-05-24T06:10:51.840Z,1071.82
2018-05-24T06:11:52.444Z,1071.77
2018-05-24T06:12:51.870Z,1072.1
2018-05-24T06:13:51.928Z,1071.95
2018-05-24T06:14:51.842Z,1072.12
2018-05-24T06:15:51.872Z,1072.01
2018-05-24T06:16:51.856Z,1072.1
2018-05-24T06:17:51.869Z,1072.09
2018-05-24T06:18:51.870Z,1072.12
2018-05-24T06:19:51.851Z,1071.99
2018-05-24T06:20:51.884Z,1072.04
2018-05-24T06:21:51.845Z,1071.87
2018-05-24T06:22:51.877Z,1072.18
2018-05-24T06:23:51.905Z,1072.07
2018-05-24T06:24:51.888Z,1071.87
2018-05-24T06:25:52.203Z,1071.88
2018-05-24T06:26:51.853Z,1071.95
2018-05-24T06:27:51.895Z,1071.89
2018-05-24T06:28:51.893Z,1072.11
2018-05-24T06:29:51.863Z,1072.03
2018-05-24T06:30:51.886Z,1072.11
2018-05-24T06:31:51.885Z,1072.32
2018-05-24T06:32:51.881Z,1072.22
2018-05-24T06:33:51.871Z,1072.25
2018-05-24T06:34:51.893Z,1072.15
2018-05-24T06:35:52.171Z,1072.18
2018-05-24T06:36:51.907Z,1072.06
2018-05-24T06:37:52.155Z,1072.26
2018-05-24T06:38:51.899Z,1072.31
2018-05-24T06:39:51.867Z,1072.23
2018-05-24T06:40:51.911Z,1072.28
2018-05-24T06:41:51.945Z,1072.19
2018-05-24T06:42:51.910Z,1072.35
2018-05-24T06:43:51.913Z,1072.16
2018-05-24T06:44:51.893Z,1072.17
2018-05-24T06:45:51.905Z,1072.29
2018-05-24T06:46:51.906Z,1072.43
2018-05-24T06:47:51.912Z,1072.32
2018-05-24T06:48:51.888Z,1072.49
2018-05-24T06:50:07.844Z,1072.62
2018-05-24T06:51:07.802Z,1072.42
2018-05-24T06:52:07.814Z,1072.59
2018-05-24T06:53:07.793Z,1072.7
2018-05-24T06:54:07.783Z,1072.42
2018-05-24T06:55:07.795Z,1072.69
2018-05-24T06:56:07.808Z,1072.79
2018-05-24T06:57:07.811Z,1072.67
2018-05-24T06:58:07.797Z,1072.81
2018-05-24T06:59:07.824Z,1072.67
2018-05-24T07:00:07.830Z,1072.61
2018-05-24T07:01:07.868Z,1072.7
2018-05-24T07:02:07.828Z,1072.73
2018-05-24T07:03:07.851Z,1072.67
2018-05-24T07:04:07.831Z,1072.54
2018-05-24T07:05:07.838Z,1072.28
2018-05-24T07:06:07.822Z,1072.88
2018-05-24T07:07:07.839Z,1072.5
2018-05-24T07:08:07.867Z,1072.33
2018-05-24T07:09:07.809Z,1072.47
2018-05-24T07:10:10.250Z,1072.53
2018-05-24T07:11:07.924Z,1072.49
2018-05-24T07:12:07.846Z,1072.68
2018-05-24T07:13:07.868Z,1072.73
2018-05-24T07:14:07.860Z,1072.6
2018-05-24T07:15:07.860Z,1072.62
2018-05-24T07:16:07.828Z,1072.47
2018-05-24T07:20:38.025Z,1072.67
2018-05-24T07:21:38.000Z,1072.63
2018-05-24T07:22:37.991Z,1072.76
2018-05-24T07:23:37.979Z,1072.68
2018-05-24T07:24:37.995Z,1072.87
2018-05-24T07:25:37.956Z,1072.68
2018-05-24T07:26:37.979Z,1072.72
2018-05-24T07:27:37.990Z,1072.68
2018-05-24T07:28:37.992Z,1072.57
2018-05-24T07:29:37.998Z,1072.59
2018-05-24T07:30:38.000Z,1072.62
2018-05-24T07:31:38.008Z,1072.58
2018-05-24T07:32:37.995Z,1072.52
2018-05-24T07:33:38.017Z,1072.45
2018-05-24T07:34:38.090Z,1072.46
2018-05-24T07:35:38.013Z,1072.48
2018-05-24T07:36:38.026Z,1072.35
2018-05-24T07:37:38.037Z,1072.23
2018-05-24T07:38:38.036Z,1072.31
2018-05-24T07:39:38.059Z,1072.31
2018-05-24T07:40:38.025Z,1072.47
2018-05-24T07:41:38.030Z,1072.21
2018-05-24T07:42:38.037Z,1072.23
2018-05-24T07:43:38.028Z,1072.23
2018-05-24T07:44:38.010Z,1072.25
2018-05-24T07:45:38.025Z,1072.46
2018-05-24T07:46:38.030Z,1072.29
2018-05-24T07:47:38.036Z,1072.33
2018-05-24T07:48:38.020Z,1072.13
2018-05-24T07:49:38.028Z,1072.19
2018-05-24T07:50:38.035Z,1072.35
2018-05-24T07:51:38.023Z,1072.36
2018-05-24T07:52:38.054Z,1072.22
2018-05-24T07:53:38.028Z,1072.13
2018-05-24T07:54:38.038Z,1072.1
2018-05-24T07:55:38.006Z,1071.87
2018-05-24T07:56:38.047Z,1072.01
2018-05-24T07:57:38.079Z,1072.02
2018-05-24T07:58:38.011Z,1072.14
2018-05-24T07:59:38.058Z,1071.97
2018-05-24T08:00:38.061Z,1072.09
2018-05-24T08:01:38.113Z,1071.97
2018-05-24T08:02:38.088Z,1071.97
2018-05-24T08:03:38.048Z,1071.9
2018-05-24T08:04:38.047Z,1072.25
2018-05-24T08:05:38.060Z,1072.03
2018-05-24T08:06:38.046Z,1071.93
2018-05-24T08:07:38.069Z,1072.03
2018-05-24T08:08:38.135Z,1071.9
2018-05-24T08:09:38.061Z,1071.9
2018-05-24T08:10:38.063Z,1071.95
2018-05-24T08:11:38.043Z,1071.7
2018-05-24T08:12:38.076Z,1071.83
2018-05-24T08:13:38.057Z,1071.93
2018-05-24T08:14:38.171Z,1071.79
2018-05-24T08:15:38.054Z,1071.73
2018-05-24T08:16:38.110Z,1071.88
2018-05-24T08:17:38.101Z,1071.91
2018-05-24T08:18:38.089Z,1071.75
2018-05-24T08:19:38.077Z,1071.98
2018-05-24T08:20:38.080Z,1071.94
2018-05-24T08:21:38.092Z,1071.94
2018-05-24T08:22:38.132Z,1071.77
2018-05-24T08:25:45.458Z,1072
2018-05-24T08:25:57.290Z,1071.8
2018-05-24T08:26:57.601Z,1071.9
2018-05-24T08:27:57.317Z,1071.87
2018-05-24T08:28:57.309Z,1071.96
2018-05-24T08:29:57.325Z,1071.77
2018-05-24T08:30:57.805Z,1071.89
2018-05-24T08:31:57.300Z,1071.88
2018-05-24T08:32:57.305Z,1071.97
2018-05-24T08:33:57.322Z,1071.99
2018-05-24T08:34:57.319Z,1072.22
2018-05-24T08:35:57.296Z,1071.81
2018-05-24T08:36:57.297Z,1071.74
2018-05-24T08:37:57.306Z,1071.84
2018-05-24T08:38:57.293Z,1072.08
2018-05-24T08:39:57.303Z,1072.11
2018-05-24T08:40:57.403Z,1072.05
2018-05-24T08:41:57.306Z,1071.87
2018-05-24T08:42:57.346Z,1072.1
2018-05-24T08:43:57.303Z,1071.89
2018-05-24T08:44:57.308Z,1072.14
2018-05-24T08:45:57.296Z,1072.04
2018-05-24T08:46:57.317Z,1072.2
2018-05-24T08:47:57.325Z,1072.21
2018-05-24T08:48:57.332Z,1072.27
2018-05-24T08:49:57.314Z,1072.12
2018-05-24T08:50:57.353Z,1071.95
2018-05-24T08:51:57.328Z,1072.26
2018-05-24T08:52:57.436Z,1071.94
2018-05-24T08:53:57.340Z,1072.09
2018-05-24T08:54:57.347Z,1071.97
2018-05-24T08:55:57.354Z,1072.07
2018-05-24T08:56:57.329Z,1072.12
2018-05-24T08:57:57.377Z,1071.94
2018-05-24T08:58:57.354Z,1071.92
2018-05-24T08:59:57.323Z,1072.02
2018-05-24T09:00:57.358Z,1072.14
2018-05-24T09:01:57.364Z,1072.05
2018-05-24T09:02:57.342Z,1071.94
2018-05-24T09:03:57.368Z,1072.17
2018-05-24T10:18:23.723Z,1072.98
2018-05-24T10:19:23.721Z,1072.78
2018-05-24T10:20:23.772Z,1073.05
2018-05-24T10:21:23.719Z,1073.08
2018-05-24T10:22:23.763Z,1072.94
2018-05-24T10:23:23.827Z,1072.91
2018-05-24T10:24:23.719Z,1072.93
2018-05-24T10:25:23.720Z,1072.99
2018-05-24T10:26:23.750Z,1072.76
2018-05-24T10:27:23.756Z,1072.81
2018-05-24T10:28:23.785Z,1072.84
2018-05-24T10:29:23.794Z,1072.82
2018-05-24T10:30:23.775Z,1072.65
2018-05-24T10:31:23.791Z,1072.82
2018-05-24T10:32:23.747Z,1072.43
2018-05-24T10:33:23.794Z,1072.28
2018-05-24T10:34:23.771Z,1072.25
2018-05-24T10:35:23.747Z,1072.32
2018-05-24T10:36:23.752Z,1072.56
2018-05-24T10:37:23.758Z,1072.32
2018-05-24T10:38:23.797Z,1072.11
2018-05-24T10:39:23.773Z,1072.11
2018-05-24T10:43:51.971Z,1072.05
2018-05-24T10:44:51.975Z,1071.91
2018-05-24T10:45:51.986Z,1071.91
2018-05-24T10:46:51.993Z,1071.73
2018-05-24T10:53:30.210Z,1071.8
2018-05-24T10:54:30.240Z,1071.76
2018-05-24T10:55:30.236Z,1071.61
2018-05-24T10:56:30.205Z,1071.57
2018-05-24T10:57:30.216Z,1071.56
2018-05-24T10:58:30.223Z,1071.57
2018-05-24T10:59:30.315Z,1071.51
2018-05-24T11:00:30.188Z,1071.45
2018-05-24T11:01:30.194Z,1071.44
2018-05-24T11:02:30.274Z,1071.44
2018-05-24T11:03:30.209Z,1071.5
2018-05-24T11:04:30.215Z,1071.47
2018-05-24T11:05:30.259Z,1071.65
2018-05-24T11:06:30.256Z,1071.22
2018-05-24T11:07:30.237Z,1071.26
2018-05-24T11:08:30.217Z,1071.31
2018-05-24T11:09:30.213Z,1071.18
2018-05-24T11:10:30.208Z,1071.07
2018-05-24T11:11:30.210Z,1071.05
2018-05-24T11:12:30.245Z,1071.1
2018-05-24T11:13:30.240Z,1071.23
2018-05-24T11:14:30.232Z,1070.98
2018-05-24T11:15:30.234Z,1071.07
2018-05-24T11:16:30.248Z,1071.31
2018-05-24T11:17:30.227Z,1070.99
2018-05-24T11:18:30.249Z,1071.02
2018-05-24T11:19:30.262Z,1070.95
2018-05-24T11:20:30.286Z,1070.94
2018-05-24T11:21:30.257Z,1070.94
2018-05-24T11:22:30.242Z,1070.98
2018-05-24T11:23:30.262Z,1071.03
2018-05-24T11:24:30.274Z,1071.25
2018-05-24T11:25:30.278Z,1071.11
2018-05-24T11:26:30.288Z,1070.99
2018-05-24T11:27:30.288Z,1071.02
2018-05-24T11:28:30.261Z,1071.02
2018-05-24T11:29:30.369Z,1070.87
2018-05-24T11:30:30.275Z,1070.94
2018-05-24T11:31:30.277Z,1070.78
2018-05-24T11:32:30.266Z,1071.01
2018-05-24T11:33:30.292Z,1070.78
2018-05-24T11:34:30.396Z,1070.75
2018-05-24T11:35:30.270Z,1070.62
2018-05-24T11:36:30.276Z,1070.74
2018-05-24T11:37:30.297Z,1070.69
2018-05-24T11:38:30.285Z,1070.72
2018-05-24T11:39:30.285Z,1070.71
2018-05-24T11:43:59.967Z,1070.66
2018-05-24T11:44:59.962Z,1070.93
2018-05-24T11:45:59.963Z,1070.89
2018-05-24T11:46:59.961Z,1070.82
2018-05-24T11:47:59.977Z,1070.85
2018-05-24T11:48:59.948Z,1071.06
2018-05-24T11:49:59.943Z,1070.9
2018-05-24T11:50:59.936Z,1070.8
2018-05-24T11:51:59.981Z,1070.92
2018-05-24T11:52:59.927Z,1070.86
2018-05-24T11:53:59.953Z,1070.95
2018-05-24T11:54:59.939Z,1070.9
2018-05-24T11:55:59.931Z,1070.85
2018-05-24T11:56:59.968Z,1070.87
2018-05-24T11:57:59.965Z,1070.81
2018-05-24T11:59:00.004Z,1070.98
2018-05-24T11:59:59.990Z,1070.84
2018-05-24T12:00:59.958Z,1070.7
2018-05-24T12:01:59.978Z,1070.78
2018-05-24T12:03:00.008Z,1070.61
2018-05-24T12:03:59.980Z,1070.62
2018-05-24T12:04:59.985Z,1070.87
2018-05-24T12:05:59.992Z,1070.77
2018-05-24T12:07:00.087Z,1070.86
2018-05-24T12:08:00.016Z,1070.77
2018-05-24T12:09:00.022Z,1070.57
2018-05-24T12:09:59.971Z,1070.59
2018-05-24T12:11:00.012Z,1070.62
2018-05-24T12:12:00.012Z,1070.45
2018-05-24T12:12:59.991Z,1070.58
2018-05-24T12:14:00.023Z,1070.41
2018-05-24T12:15:00.032Z,1070.5
2018-05-24T12:15:59.988Z,1070.58
2018-05-24T12:17:00.011Z,1070.56
2018-05-24T12:18:00.054Z,1070.48
2018-05-24T12:19:00.031Z,1070.36
2018-05-24T12:20:00.029Z,1070.47
2018-05-24T12:21:00.047Z,1070.44
2018-05-24T12:22:01.035Z,1070.43
2018-05-24T12:23:00.035Z,1070.33
2018-05-24T12:24:00.042Z,1070.47
2018-05-24T12:25:00.016Z,1070.33
2018-05-24T12:26:00.063Z,1070.3
2018-05-24T12:27:00.017Z,1070.32
2018-05-24T12:28:00.011Z,1070.27
2018-05-24T12:29:00.020Z,1070.24
2018-05-24T12:30:00.027Z,1070.27
2018-05-24T12:31:00.034Z,1070.27
2018-05-24T12:32:00.041Z,1070.51
2018-05-24T12:33:00.633Z,1070.31
2018-05-24T12:34:00.003Z,1070.29
2018-05-24T12:35:00.034Z,1070.19
2018-05-24T12:36:00.044Z,1070.24
2018-05-24T12:37:00.088Z,1070.32
2018-05-24T12:38:00.055Z,1070.17
2018-05-24T12:39:00.039Z,1070.23
2018-05-24T12:40:00.053Z,1070.14
2018-05-24T12:41:00.027Z,1070.3
2018-05-24T12:42:00.061Z,1070.21
2018-05-24T12:43:00.074Z,1070.24
2018-05-24T12:44:00.044Z,1070.42
2018-05-24T12:45:00.080Z,1070.2
2018-05-24T12:46:00.054Z,1070.19
2018-05-24T12:47:00.058Z,1070.23
2018-05-24T12:48:00.072Z,1070.23
2018-05-24T12:49:00.047Z,1070.16
2018-05-24T12:50:00.073Z,1070.14
2018-05-24T12:51:00.068Z,1070.37
2018-05-24T12:52:00.078Z,1070.08
2018-05-24T12:53:00.055Z,1070.1
2018-05-24T12:54:00.059Z,1070.11
2018-05-24T12:55:00.070Z,1070.11
2018-05-24T12:56:00.051Z,1069.9
2018-05-24T12:57:00.080Z,1070.16
2018-05-24T12:58:00.068Z,1070.32
2018-05-24T12:59:00.071Z,1070.1
2018-05-24T13:00:00.081Z,1070.03
2018-05-24T13:01:00.081Z,1070.07
2018-05-24T13:02:00.083Z,1070.1
2018-05-24T13:03:00.071Z,1070.21
2018-05-24T13:04:00.078Z,1070.18
2018-05-24T13:05:00.125Z,1070.12
2018-05-24T13:06:00.074Z,1070.02
2018-05-24T13:07:00.120Z,1070.11
2018-05-24T13:08:00.089Z,1070.26
2018-05-24T13:09:00.074Z,1070.15
2018-05-24T13:10:00.057Z,1070
2018-05-24T13:11:00.081Z,1070.02
2018-05-24T13:12:00.121Z,1069.97
2018-05-24T13:13:00.132Z,1070.16
2018-05-24T13:14:00.120Z,1070.23
2018-05-24T13:15:00.136Z,1070.23
2018-05-24T13:16:00.122Z,1070.17
2018-05-24T13:17:00.178Z,1070.14
2018-05-24T13:18:05.417Z,1070.24
2018-05-24T13:19:00.136Z,1070.08
2018-05-24T13:20:00.121Z,1070.23
2018-05-24T13:21:00.129Z,1070.17
2018-05-24T13:22:00.128Z,1070.31
2018-05-24T13:23:00.152Z,1070.22
2018-05-24T13:24:00.132Z,1070.21
2018-05-24T13:25:00.159Z,1070.36
2018-05-24T13:26:00.096Z,1070.18
2018-05-24T13:27:00.108Z,1070.31
2018-05-24T13:28:00.150Z,1070.3
2018-05-24T13:29:00.139Z,1070.55
2018-05-24T13:30:00.131Z,1070.2
2018-05-24T13:31:00.141Z,1070.19
2018-05-24T13:32:00.111Z,1070.17
2018-05-24T13:33:00.171Z,1070.29
2018-05-24T13:34:00.138Z,1070.1
2018-05-24T13:35:00.141Z,1070
2018-05-24T13:36:00.165Z,1070.27
2018-05-24T13:37:00.132Z,1070.2
2018-05-24T13:38:00.143Z,1070.05
2018-05-24T13:39:00.167Z,1070.28
2018-05-24T13:40:00.162Z,1070.15
2018-05-24T13:41:00.161Z,1070.29
2018-05-24T13:42:00.172Z,1070.27
2018-05-24T13:43:00.205Z,1070.13
2018-05-24T13:44:00.179Z,1070.14